createdAt,value
2017-08-16T00:01:09.083Z,24.3
2017-08-16T00:02:19.461Z,24.34
2017-08-16T00:03:29.704Z,24.32
2017-08-16T00:04:39.646Z,24.16
2017-08-16T00:05:49.583Z,24.27
2017-08-16T00:06:59.830Z,24.32
2017-08-16T00:08:10.145Z,24.31
2017-08-16T00:09:19.766Z,24.24
2017-08-16T00:10:30.010Z,24.13
2017-08-16T00:11:39.925Z,24.3
2017-08-16T00:12:49.853Z,24.18
2017-08-16T00:14:00.166Z,24.2
2017-08-16T00:15:10.106Z,24.21
2017-08-16T00:16:20.015Z,24.18
2017-08-16T00:17:29.960Z,24.21
2017-08-16T00:18:39.870Z,24.1
2017-08-16T00:19:49.948Z,24.16
2017-08-16T00:20:59.884Z,24.09
2017-08-16T00:22:10.119Z,24.08
2017-08-16T00:23:20.058Z,24.15
2017-08-16T00:24:29.985Z,24.08
2017-08-16T00:25:39.953Z,24.1
2017-08-16T00:26:50.168Z,24.09
2017-08-16T00:28:00.101Z,24.06
2017-08-16T00:29:10.016Z,23.98
2017-08-16T00:30:20.263Z,24.1
2017-08-16T00:31:29.722Z,24.06
2017-08-16T00:32:39.942Z,24.05
2017-08-16T00:33:50.187Z,23.98
2017-08-16T00:35:00.426Z,24.06
2017-08-16T00:36:10.350Z,23.97
2017-08-16T00:37:20.271Z,24.06
2017-08-16T00:38:30.502Z,23.88
2017-08-16T00:39:40.744Z,23.97
2017-08-16T00:40:50.965Z,23.95
2017-08-16T00:42:00.882Z,23.94
2017-08-16T00:43:11.129Z,23.91
2017-08-16T00:44:21.046Z,23.98
2017-08-16T00:45:31.005Z,23.91
2017-08-16T00:46:40.646Z,23.98
2017-08-16T00:47:50.316Z,23.98
2017-08-16T00:49:00.569Z,23.9
2017-08-16T00:50:10.487Z,23.98
2017-08-16T00:51:20.413Z,23.98
2017-08-16T00:52:29.723Z,23.94
2017-08-16T00:53:39.652Z,23.95
2017-08-16T00:54:49.284Z,23.98
2017-08-16T00:55:59.226Z,23.93
2017-08-16T00:57:08.850Z,24
2017-08-16T00:58:18.759Z,23.88
2017-08-16T00:59:28.978Z,23.98
2017-08-16T01:00:39.384Z,23.93
2017-08-16T01:01:49.610Z,24.02
2017-08-16T01:02:58.923Z,23.94
2017-08-16T01:04:09.169Z,23.93
2017-08-16T01:05:19.422Z,23.85
2017-08-16T01:06:29.182Z,23.93
2017-08-16T01:07:39.107Z,23.98
2017-08-16T01:08:49.031Z,23.9
2017-08-16T01:09:58.946Z,23.88
2017-08-16T01:11:09.173Z,24.05
2017-08-16T01:12:19.399Z,23.97
2017-08-16T01:13:29.620Z,23.95
2017-08-16T01:14:39.240Z,23.93
